sensor_id;sensor_type;location;lat;lon;timestamp;temperature;humidity
47310;DHT22;33046;52.270;6.832;2022-09-09T00:02:02;19.40;92.30
47310;DHT22;33046;52.270;6.832;2022-09-09T00:04:15;19.40;92.20
47310;DHT22;33046;52.270;6.832;2022-09-09T00:06:29;19.40;92.40
47310;DHT22;33046;52.270;6.832;2022-09-09T00:08:43;19.40;92.40
47310;DHT22;33046;52.270;6.832;2022-09-09T00:10:58;19.40;92.40
47310;DHT22;33046;52.270;6.832;2022-09-09T00:13:14;19.30;92.30
47310;DHT22;33046;52.270;6.832;2022-09-09T00:15:25;19.40;92.40
47310;DHT22;33046;52.270;6.832;2022-09-09T00:17:37;19.40;92.50
47310;DHT22;33046;52.270;6.832;2022-09-09T00:19:49;19.30;92.60
47310;DHT22;33046;52.270;6.832;2022-09-09T00:22:10;19.30;92.70
47310;DHT22;33046;52.270;6.832;2022-09-09T00:24:26;19.30;92.80
47310;DHT22;33046;52.270;6.832;2022-09-09T00:26:39;19.30;92.70
47310;DHT22;33046;52.270;6.832;2022-09-09T00:28:52;19.30;92.50
47310;DHT22;33046;52.270;6.832;2022-09-09T00:31:07;19.30;92.80
47310;DHT22;33046;52.270;6.832;2022-09-09T00:33:19;19.20;92.80
47310;DHT22;33046;52.270;6.832;2022-09-09T00:35:29;19.30;92.90
47310;DHT22;33046;52.270;6.832;2022-09-09T00:37:38;19.20;92.80
47310;DHT22;33046;52.270;6.832;2022-09-09T00:39:46;19.20;92.70
47310;DHT22;33046;52.270;6.832;2022-09-09T00:42:05;19.20;92.80
47310;DHT22;33046;52.270;6.832;2022-09-09T00:44:25;19.20;92.80
47310;DHT22;33046;52.270;6.832;2022-09-09T00:46:46;19.20;92.70
47310;DHT22;33046;52.270;6.832;2022-09-09T00:49:02;19.20;92.90
47310;DHT22;33046;52.270;6.832;2022-09-09T00:51:15;19.10;92.80
47310;DHT22;33046;52.270;6.832;2022-09-09T00:53:29;19.10;93.00
47310;DHT22;33046;52.270;6.832;2022-09-09T00:55:43;19.10;92.90
47310;DHT22;33046;52.270;6.832;2022-09-09T00:57:53;19.10;92.90
47310;DHT22;33046;52.270;6.832;2022-09-09T01:00:17;19.10;92.90
47310;DHT22;33046;52.270;6.832;2022-09-09T01:02:29;19.10;92.90
47310;DHT22;33046;52.270;6.832;2022-09-09T01:04:38;19.00;92.90
47310;DHT22;33046;52.270;6.832;2022-09-09T01:06:46;19.00;92.90
47310;DHT22;33046;52.270;6.832;2022-09-09T01:09:04;18.90;93.00
47310;DHT22;33046;52.270;6.832;2022-09-09T01:11:20;18.90;93.00
47310;DHT22;33046;52.270;6.832;2022-09-09T01:13:32;18.90;93.10
47310;DHT22;33046;52.270;6.832;2022-09-09T01:15:44;18.90;93.10
47310;DHT22;33046;52.270;6.832;2022-09-09T01:17:58;18.90;93.10
47310;DHT22;33046;52.270;6.832;2022-09-09T01:20:12;18.80;93.10
47310;DHT22;33046;52.270;6.832;2022-09-09T01:22:33;18.80;93.10
47310;DHT22;33046;52.270;6.832;2022-09-09T01:25:01;18.80;93.20
47310;DHT22;33046;52.270;6.832;2022-09-09T01:27:43;18.70;93.10
47310;DHT22;33046;52.270;6.832;2022-09-09T01:29:53;18.70;93.20
47310;DHT22;33046;52.270;6.832;2022-09-09T01:32:02;18.70;93.30
47310;DHT22;33046;52.270;6.832;2022-09-09T01:34:11;18.70;93.20
47310;DHT22;33046;52.270;6.832;2022-09-09T01:36:24;18.60;93.20
47310;DHT22;33046;52.270;6.832;2022-09-09T01:38:33;18.60;93.20
47310;DHT22;33046;52.270;6.832;2022-09-09T01:40:41;18.60;93.20
47310;DHT22;33046;52.270;6.832;2022-09-09T01:42:49;18.60;93.20
47310;DHT22;33046;52.270;6.832;2022-09-09T01:44:56;18.50;93.30
47310;DHT22;33046;52.270;6.832;2022-09-09T01:47:04;18.50;93.40
47310;DHT22;33046;52.270;6.832;2022-09-09T01:49:12;18.50;93.30
47310;DHT22;33046;52.270;6.832;2022-09-09T01:51:20;18.50;93.30
47310;DHT22;33046;52.270;6.832;2022-09-09T01:53:27;18.40;93.30
47310;DHT22;33046;52.270;6.832;2022-09-09T01:55:41;18.40;93.30
47310;DHT22;33046;52.270;6.832;2022-09-09T01:58:10;18.40;93.20
47310;DHT22;33046;52.270;6.832;2022-09-09T02:00:25;18.40;93.30
47310;DHT22;33046;52.270;6.832;2022-09-09T02:02:39;18.30;93.40
47310;DHT22;33046;52.270;6.832;2022-09-09T02:04:56;18.30;93.50
47310;DHT22;33046;52.270;6.832;2022-09-09T02:07:13;18.30;93.60
47310;DHT22;33046;52.270;6.832;2022-09-09T02:09:23;18.30;93.70
47310;DHT22;33046;52.270;6.832;2022-09-09T02:11:32;18.30;93.60
47310;DHT22;33046;52.270;6.832;2022-09-09T02:13:56;18.30;93.70
47310;DHT22;33046;52.270;6.832;2022-09-09T02:16:07;18.30;93.80
47310;DHT22;33046;52.270;6.832;2022-09-09T02:18:19;18.30;93.80
47310;DHT22;33046;52.270;6.832;2022-09-09T02:20:31;18.30;93.70
47310;DHT22;33046;52.270;6.832;2022-09-09T02:22:43;18.20;93.80
47310;DHT22;33046;52.270;6.832;2022-09-09T02:24:57;18.20;93.80
47310;DHT22;33046;52.270;6.832;2022-09-09T02:27:09;18.20;93.90
47310;DHT22;33046;52.270;6.832;2022-09-09T02:29:19;18.20;94.20
47310;DHT22;33046;52.270;6.832;2022-09-09T02:31:28;18.20;94.00
47310;DHT22;33046;52.270;6.832;2022-09-09T02:33:44;18.20;93.90
47310;DHT22;33046;52.270;6.832;2022-09-09T02:35:54;18.10;93.90
47310;DHT22;33046;52.270;6.832;2022-09-09T02:38:06;18.10;94.00
47310;DHT22;33046;52.270;6.832;2022-09-09T02:40:15;18.10;93.90
47310;DHT22;33046;52.270;6.832;2022-09-09T02:42:26;18.10;93.90
47310;DHT22;33046;52.270;6.832;2022-09-09T02:44:36;18.10;93.90
47310;DHT22;33046;52.270;6.832;2022-09-09T02:47:03;18.00;93.90
47310;DHT22;33046;52.270;6.832;2022-09-09T02:49:18;18.00;93.90
47310;DHT22;33046;52.270;6.832;2022-09-09T02:51:37;18.00;94.00
47310;DHT22;33046;52.270;6.832;2022-09-09T02:53:50;18.00;93.80
47310;DHT22;33046;52.270;6.832;2022-09-09T02:56:04;18.00;93.80
47310;DHT22;33046;52.270;6.832;2022-09-09T02:58:17;18.00;93.80
47310;DHT22;33046;52.270;6.832;2022-09-09T03:00:34;17.90;93.90
47310;DHT22;33046;52.270;6.832;2022-09-09T03:02:42;17.90;93.90
47310;DHT22;33046;52.270;6.832;2022-09-09T03:04:48;17.90;93.80
47310;DHT22;33046;52.270;6.832;2022-09-09T03:06:56;17.90;93.80
47310;DHT22;33046;52.270;6.832;2022-09-09T03:09:03;17.90;93.90
47310;DHT22;33046;52.270;6.832;2022-09-09T03:11:09;17.90;93.90
47310;DHT22;33046;52.270;6.832;2022-09-09T03:13:17;17.90;93.80
47310;DHT22;33046;52.270;6.832;2022-09-09T03:15:23;17.80;93.70
47310;DHT22;33046;52.270;6.832;2022-09-09T03:17:32;17.80;93.80
47310;DHT22;33046;52.270;6.832;2022-09-09T03:19:39;17.80;93.80
47310;DHT22;33046;52.270;6.832;2022-09-09T03:21:48;17.80;93.80
47310;DHT22;33046;52.270;6.832;2022-09-09T03:23:55;17.80;93.90
47310;DHT22;33046;52.270;6.832;2022-09-09T03:26:02;17.80;93.80
47310;DHT22;33046;52.270;6.832;2022-09-09T03:28:18;17.70;93.80
47310;DHT22;33046;52.270;6.832;2022-09-09T03:30:26;17.70;93.80
47310;DHT22;33046;52.270;6.832;2022-09-09T03:32:36;17.70;93.80
47310;DHT22;33046;52.270;6.832;2022-09-09T03:34:43;17.70;94.00
47310;DHT22;33046;52.270;6.832;2022-09-09T03:36:52;17.70;94.00
47310;DHT22;33046;52.270;6.832;2022-09-09T03:38:59;17.60;94.00
47310;DHT22;33046;52.270;6.832;2022-09-09T03:41:09;17.60;94.00
47310;DHT22;33046;52.270;6.832;2022-09-09T03:43:16;17.60;94.00
47310;DHT22;33046;52.270;6.832;2022-09-09T03:45:24;17.70;94.00
47310;DHT22;33046;52.270;6.832;2022-09-09T03:47:31;17.60;94.00
47310;DHT22;33046;52.270;6.832;2022-09-09T03:49:45;17.60;94.00
47310;DHT22;33046;52.270;6.832;2022-09-09T03:51:52;17.60;93.90
47310;DHT22;33046;52.270;6.832;2022-09-09T03:53:58;17.50;93.90
47310;DHT22;33046;52.270;6.832;2022-09-09T03:56:07;17.60;94.00
47310;DHT22;33046;52.270;6.832;2022-09-09T03:58:15;17.50;94.00
47310;DHT22;33046;52.270;6.832;2022-09-09T04:00:22;17.50;94.10
47310;DHT22;33046;52.270;6.832;2022-09-09T04:02:31;17.50;94.10
47310;DHT22;33046;52.270;6.832;2022-09-09T04:04:38;17.50;94.00
47310;DHT22;33046;52.270;6.832;2022-09-09T04:06:47;17.50;94.00
47310;DHT22;33046;52.270;6.832;2022-09-09T04:08:53;17.50;94.10
47310;DHT22;33046;52.270;6.832;2022-09-09T04:11:01;17.40;94.00
47310;DHT22;33046;52.270;6.832;2022-09-09T04:13:09;17.40;94.00
47310;DHT22;33046;52.270;6.832;2022-09-09T04:15:16;17.50;94.00
47310;DHT22;33046;52.270;6.832;2022-09-09T04:17:23;17.40;94.10
47310;DHT22;33046;52.270;6.832;2022-09-09T04:19:30;17.40;94.20
47310;DHT22;33046;52.270;6.832;2022-09-09T04:21:36;17.40;94.20
47310;DHT22;33046;52.270;6.832;2022-09-09T04:23:45;17.30;94.30
47310;DHT22;33046;52.270;6.832;2022-09-09T04:25:52;17.30;94.30
47310;DHT22;33046;52.270;6.832;2022-09-09T04:28:01;17.30;94.50
47310;DHT22;33046;52.270;6.832;2022-09-09T04:30:09;17.30;94.60
47310;DHT22;33046;52.270;6.832;2022-09-09T04:32:16;17.40;94.60
47310;DHT22;33046;52.270;6.832;2022-09-09T04:34:24;17.30;94.80
47310;DHT22;33046;52.270;6.832;2022-09-09T04:36:32;17.30;94.80
47310;DHT22;33046;52.270;6.832;2022-09-09T04:38:42;17.40;94.90
47310;DHT22;33046;52.270;6.832;2022-09-09T04:40:51;17.30;95.00
47310;DHT22;33046;52.270;6.832;2022-09-09T04:42:58;17.30;95.10
47310;DHT22;33046;52.270;6.832;2022-09-09T04:45:06;17.40;95.30
47310;DHT22;33046;52.270;6.832;2022-09-09T04:47:13;17.30;95.30
47310;DHT22;33046;52.270;6.832;2022-09-09T04:49:20;17.30;95.30
47310;DHT22;33046;52.270;6.832;2022-09-09T04:51:26;17.40;95.40
47310;DHT22;33046;52.270;6.832;2022-09-09T04:53:33;17.40;95.50
47310;DHT22;33046;52.270;6.832;2022-09-09T04:55:40;17.30;95.50
47310;DHT22;33046;52.270;6.832;2022-09-09T04:57:49;17.30;95.60
47310;DHT22;33046;52.270;6.832;2022-09-09T04:59:55;17.40;95.70
47310;DHT22;33046;52.270;6.832;2022-09-09T05:02:02;17.40;95.70
47310;DHT22;33046;52.270;6.832;2022-09-09T05:04:09;17.40;95.80
47310;DHT22;33046;52.270;6.832;2022-09-09T05:06:17;17.40;95.90
47310;DHT22;33046;52.270;6.832;2022-09-09T05:08:27;17.40;95.90
47310;DHT22;33046;52.270;6.832;2022-09-09T05:10:36;17.40;95.90
47310;DHT22;33046;52.270;6.832;2022-09-09T05:12:53;17.40;96.00
47310;DHT22;33046;52.270;6.832;2022-09-09T05:15:03;17.50;96.10
47310;DHT22;33046;52.270;6.832;2022-09-09T05:17:11;17.50;96.20
47310;DHT22;33046;52.270;6.832;2022-09-09T05:19:18;17.50;96.10
47310;DHT22;33046;52.270;6.832;2022-09-09T05:21:29;17.50;96.20
47310;DHT22;33046;52.270;6.832;2022-09-09T05:23:36;17.50;96.20
47310;DHT22;33046;52.270;6.832;2022-09-09T05:25:43;17.50;96.30
47310;DHT22;33046;52.270;6.832;2022-09-09T05:27:50;17.60;96.40
47310;DHT22;33046;52.270;6.832;2022-09-09T05:29:58;17.60;96.30
47310;DHT22;33046;52.270;6.832;2022-09-09T05:32:05;17.60;96.30
47310;DHT22;33046;52.270;6.832;2022-09-09T05:34:14;17.70;96.40
47310;DHT22;33046;52.270;6.832;2022-09-09T05:36:22;17.70;96.40
47310;DHT22;33046;52.270;6.832;2022-09-09T05:38:34;17.70;96.40
47310;DHT22;33046;52.270;6.832;2022-09-09T05:40:47;17.80;96.30
47310;DHT22;33046;52.270;6.832;2022-09-09T05:42:54;17.80;96.40
47310;DHT22;33046;52.270;6.832;2022-09-09T05:45:02;17.80;96.30
47310;DHT22;33046;52.270;6.832;2022-09-09T05:47:09;17.80;96.30
47310;DHT22;33046;52.270;6.832;2022-09-09T05:49:16;17.90;96.40
47310;DHT22;33046;52.270;6.832;2022-09-09T05:51:25;17.90;96.40
47310;DHT22;33046;52.270;6.832;2022-09-09T05:53:35;17.90;96.30
47310;DHT22;33046;52.270;6.832;2022-09-09T05:55:42;18.00;96.40
47310;DHT22;33046;52.270;6.832;2022-09-09T05:57:49;18.00;96.40
47310;DHT22;33046;52.270;6.832;2022-09-09T05:59:56;18.00;96.40
47310;DHT22;33046;52.270;6.832;2022-09-09T06:02:05;18.10;96.40
47310;DHT22;33046;52.270;6.832;2022-09-09T06:04:15;18.10;96.40
47310;DHT22;33046;52.270;6.832;2022-09-09T06:06:23;18.10;96.30
47310;DHT22;33046;52.270;6.832;2022-09-09T06:08:30;18.10;96.40
47310;DHT22;33046;52.270;6.832;2022-09-09T06:10:37;18.10;96.30
47310;DHT22;33046;52.270;6.832;2022-09-09T06:12:44;18.10;96.30
47310;DHT22;33046;52.270;6.832;2022-09-09T06:14:51;18.10;96.40
47310;DHT22;33046;52.270;6.832;2022-09-09T06:16:58;18.10;96.40
47310;DHT22;33046;52.270;6.832;2022-09-09T06:19:10;18.20;96.40
47310;DHT22;33046;52.270;6.832;2022-09-09T06:21:18;18.20;96.40
47310;DHT22;33046;52.270;6.832;2022-09-09T06:23:27;18.20;96.30
47310;DHT22;33046;52.270;6.832;2022-09-09T06:25:34;18.20;96.20
47310;DHT22;33046;52.270;6.832;2022-09-09T06:27:41;18.30;96.30
47310;DHT22;33046;52.270;6.832;2022-09-09T06:29:49;18.30;96.20
47310;DHT22;33046;52.270;6.832;2022-09-09T06:31:56;18.30;96.30
47310;DHT22;33046;52.270;6.832;2022-09-09T06:34:07;18.30;96.30
47310;DHT22;33046;52.270;6.832;2022-09-09T06:36:20;18.30;96.30
47310;DHT22;33046;52.270;6.832;2022-09-09T06:38:27;18.30;96.20
47310;DHT22;33046;52.270;6.832;2022-09-09T06:40:34;18.40;96.20
47310;DHT22;33046;52.270;6.832;2022-09-09T06:42:41;18.40;96.20
47310;DHT22;33046;52.270;6.832;2022-09-09T06:45:01;18.40;96.20
47310;DHT22;33046;52.270;6.832;2022-09-09T06:47:22;18.50;96.20
47310;DHT22;33046;52.270;6.832;2022-09-09T06:49:29;18.60;96.10
47310;DHT22;33046;52.270;6.832;2022-09-09T06:51:38;18.60;96.00
47310;DHT22;33046;52.270;6.832;2022-09-09T06:53:46;18.70;95.80
47310;DHT22;33046;52.270;6.832;2022-09-09T06:55:54;18.80;95.80
47310;DHT22;33046;52.270;6.832;2022-09-09T06:58:01;18.90;95.60
47310;DHT22;33046;52.270;6.832;2022-09-09T07:00:09;18.90;95.50
47310;DHT22;33046;52.270;6.832;2022-09-09T07:02:16;19.00;95.50
47310;DHT22;33046;52.270;6.832;2022-09-09T07:04:24;19.00;95.40
47310;DHT22;33046;52.270;6.832;2022-09-09T07:06:33;19.10;95.40
47310;DHT22;33046;52.270;6.832;2022-09-09T07:08:43;19.10;95.30
47310;DHT22;33046;52.270;6.832;2022-09-09T07:10:54;19.10;95.20
47310;DHT22;33046;52.270;6.832;2022-09-09T07:13:08;19.20;95.20
47310;DHT22;33046;52.270;6.832;2022-09-09T07:15:14;19.20;95.00
47310;DHT22;33046;52.270;6.832;2022-09-09T07:17:24;19.20;94.90
47310;DHT22;33046;52.270;6.832;2022-09-09T07:19:30;19.30;94.90
47310;DHT22;33046;52.270;6.832;2022-09-09T07:21:37;19.30;95.00
47310;DHT22;33046;52.270;6.832;2022-09-09T07:23:46;19.40;94.80
47310;DHT22;33046;52.270;6.832;2022-09-09T07:25:53;19.50;94.70
47310;DHT22;33046;52.270;6.832;2022-09-09T07:28:01;19.60;94.60
47310;DHT22;33046;52.270;6.832;2022-09-09T07:30:08;19.60;94.60
47310;DHT22;33046;52.270;6.832;2022-09-09T07:32:16;19.70;94.20
47310;DHT22;33046;52.270;6.832;2022-09-09T07:34:23;19.80;94.30
47310;DHT22;33046;52.270;6.832;2022-09-09T07:36:33;19.80;94.40
47310;DHT22;33046;52.270;6.832;2022-09-09T07:38:41;19.90;94.30
47310;DHT22;33046;52.270;6.832;2022-09-09T07:40:50;20.00;93.80
47310;DHT22;33046;52.270;6.832;2022-09-09T07:42:57;20.00;93.80
47310;DHT22;33046;52.270;6.832;2022-09-09T07:45:04;20.00;93.90
47310;DHT22;33046;52.270;6.832;2022-09-09T07:47:12;20.10;93.70
47310;DHT22;33046;52.270;6.832;2022-09-09T07:49:24;20.10;93.50
47310;DHT22;33046;52.270;6.832;2022-09-09T07:51:36;20.10;93.60
47310;DHT22;33046;52.270;6.832;2022-09-09T07:53:44;20.10;93.80
47310;DHT22;33046;52.270;6.832;2022-09-09T07:55:52;20.20;93.60
47310;DHT22;33046;52.270;6.832;2022-09-09T07:57:59;20.20;93.50
47310;DHT22;33046;52.270;6.832;2022-09-09T08:00:07;20.30;93.50
47310;DHT22;33046;52.270;6.832;2022-09-09T08:02:23;20.30;93.50
47310;DHT22;33046;52.270;6.832;2022-09-09T08:04:29;20.40;93.70
47310;DHT22;33046;52.270;6.832;2022-09-09T08:06:39;20.40;93.20
47310;DHT22;33046;52.270;6.832;2022-09-09T08:08:50;20.50;93.00
47310;DHT22;33046;52.270;6.832;2022-09-09T08:11:11;20.60;92.90
47310;DHT22;33046;52.270;6.832;2022-09-09T08:13:19;20.60;92.80
47310;DHT22;33046;52.270;6.832;2022-09-09T08:15:27;20.70;93.00
47310;DHT22;33046;52.270;6.832;2022-09-09T08:17:34;20.80;92.70
47310;DHT22;33046;52.270;6.832;2022-09-09T08:19:45;20.80;92.40
47310;DHT22;33046;52.270;6.832;2022-09-09T08:21:59;20.80;92.40
47310;DHT22;33046;52.270;6.832;2022-09-09T08:24:07;20.80;92.30
47310;DHT22;33046;52.270;6.832;2022-09-09T08:26:17;20.80;92.20
47310;DHT22;33046;52.270;6.832;2022-09-09T08:28:25;20.90;92.10
47310;DHT22;33046;52.270;6.832;2022-09-09T08:30:32;20.90;92.00
47310;DHT22;33046;52.270;6.832;2022-09-09T08:32:39;21.00;92.10
47310;DHT22;33046;52.270;6.832;2022-09-09T08:34:46;21.00;92.10
47310;DHT22;33046;52.270;6.832;2022-09-09T08:36:58;21.00;92.20
47310;DHT22;33046;52.270;6.832;2022-09-09T08:39:13;21.00;91.70
47310;DHT22;33046;52.270;6.832;2022-09-09T08:44:23;21.10;91.30
47310;DHT22;33046;52.270;6.832;2022-09-09T08:46:39;21.20;91.00
47310;DHT22;33046;52.270;6.832;2022-09-09T08:48:54;21.20;91.20
47310;DHT22;33046;52.270;6.832;2022-09-09T08:51:03;21.20;91.10
47310;DHT22;33046;52.270;6.832;2022-09-09T08:53:17;21.30;91.00
47310;DHT22;33046;52.270;6.832;2022-09-09T08:55:36;21.30;90.80
47310;DHT22;33046;52.270;6.832;2022-09-09T08:57:45;21.30;90.10
47310;DHT22;33046;52.270;6.832;2022-09-09T08:59:52;21.40;90.40
47310;DHT22;33046;52.270;6.832;2022-09-09T09:02:07;21.40;90.70
47310;DHT22;33046;52.270;6.832;2022-09-09T09:04:33;21.40;90.30
47310;DHT22;33046;52.270;6.832;2022-09-09T09:06:50;21.40;90.30
47310;DHT22;33046;52.270;6.832;2022-09-09T09:09:04;21.30;90.40
47310;DHT22;33046;52.270;6.832;2022-09-09T09:11:12;21.30;90.40
47310;DHT22;33046;52.270;6.832;2022-09-09T09:13:27;21.20;90.20
47310;DHT22;33046;52.270;6.832;2022-09-09T09:15:38;21.30;90.50
47310;DHT22;33046;52.270;6.832;2022-09-09T09:17:49;21.30;90.30
47310;DHT22;33046;52.270;6.832;2022-09-09T09:19:57;21.40;90.00
47310;DHT22;33046;52.270;6.832;2022-09-09T09:22:10;21.40;89.00
47310;DHT22;33046;52.270;6.832;2022-09-09T09:24:20;21.50;89.90
47310;DHT22;33046;52.270;6.832;2022-09-09T09:26:32;21.50;90.30
47310;DHT22;33046;52.270;6.832;2022-09-09T09:28:41;21.50;89.60
47310;DHT22;33046;52.270;6.832;2022-09-09T09:30:55;21.60;90.00
47310;DHT22;33046;52.270;6.832;2022-09-09T09:33:05;21.60;89.10
47310;DHT22;33046;52.270;6.832;2022-09-09T09:35:15;21.70;88.60
47310;DHT22;33046;52.270;6.832;2022-09-09T09:37:26;21.80;88.40
47310;DHT22;33046;52.270;6.832;2022-09-09T09:39:35;21.80;87.20
47310;DHT22;33046;52.270;6.832;2022-09-09T09:42:09;21.80;87.00
47310;DHT22;33046;52.270;6.832;2022-09-09T09:44:25;21.80;86.10
47310;DHT22;33046;52.270;6.832;2022-09-09T09:46:33;21.80;86.20
47310;DHT22;33046;52.270;6.832;2022-09-09T09:48:56;21.80;86.40
47310;DHT22;33046;52.270;6.832;2022-09-09T09:51:07;22.00;85.20
47310;DHT22;33046;52.270;6.832;2022-09-09T09:53:20;22.10;85.10
47310;DHT22;33046;52.270;6.832;2022-09-09T09:55:30;22.10;83.90
47310;DHT22;33046;52.270;6.832;2022-09-09T09:57:38;22.10;84.60
47310;DHT22;33046;52.270;6.832;2022-09-09T10:00:00;22.10;83.30
47310;DHT22;33046;52.270;6.832;2022-09-09T10:02:18;22.20;83.70
47310;DHT22;33046;52.270;6.832;2022-09-09T10:04:29;22.20;84.30
47310;DHT22;33046;52.270;6.832;2022-09-09T10:06:37;22.20;83.10
47310;DHT22;33046;52.270;6.832;2022-09-09T10:08:45;22.20;82.70
47310;DHT22;33046;52.270;6.832;2022-09-09T10:11:05;22.30;82.90
47310;DHT22;33046;52.270;6.832;2022-09-09T10:13:18;22.40;82.90
47310;DHT22;33046;52.270;6.832;2022-09-09T10:15:32;22.40;83.10
47310;DHT22;33046;52.270;6.832;2022-09-09T10:17:53;22.30;82.60
47310;DHT22;33046;52.270;6.832;2022-09-09T10:20:15;22.30;82.20
47310;DHT22;33046;52.270;6.832;2022-09-09T10:22:26;22.30;82.30
47310;DHT22;33046;52.270;6.832;2022-09-09T10:25:11;22.40;82.70
47310;DHT22;33046;52.270;6.832;2022-09-09T10:27:26;22.40;81.20
47310;DHT22;33046;52.270;6.832;2022-09-09T10:29:51;22.40;81.30
47310;DHT22;33046;52.270;6.832;2022-09-09T10:32:10;22.40;81.00
47310;DHT22;33046;52.270;6.832;2022-09-09T10:34:34;22.40;81.00
47310;DHT22;33046;52.270;6.832;2022-09-09T10:36:47;22.40;81.60
47310;DHT22;33046;52.270;6.832;2022-09-09T10:38:59;22.40;81.00
47310;DHT22;33046;52.270;6.832;2022-09-09T10:41:19;22.50;81.10
47310;DHT22;33046;52.270;6.832;2022-09-09T10:46:08;22.50;80.50
47310;DHT22;33046;52.270;6.832;2022-09-09T10:48:31;22.60;80.70
47310;DHT22;33046;52.270;6.832;2022-09-09T10:50:57;22.70;79.50
47310;DHT22;33046;52.270;6.832;2022-09-09T10:53:16;22.80;79.40
47310;DHT22;33046;52.270;6.832;2022-09-09T10:55:31;23.00;79.70
47310;DHT22;33046;52.270;6.832;2022-09-09T10:57:42;23.10;80.10
47310;DHT22;33046;52.270;6.832;2022-09-09T10:59:54;23.10;79.20
47310;DHT22;33046;52.270;6.832;2022-09-09T11:02:07;23.20;79.20
47310;DHT22;33046;52.270;6.832;2022-09-09T11:04:22;23.20;78.50
47310;DHT22;33046;52.270;6.832;2022-09-09T11:06:35;23.10;77.90
47310;DHT22;33046;52.270;6.832;2022-09-09T11:08:45;23.10;77.60
47310;DHT22;33046;52.270;6.832;2022-09-09T11:10:58;23.20;77.50
47310;DHT22;33046;52.270;6.832;2022-09-09T11:13:11;23.20;77.10
47310;DHT22;33046;52.270;6.832;2022-09-09T11:15:20;23.30;77.70
47310;DHT22;33046;52.270;6.832;2022-09-09T11:17:33;23.30;77.10
47310;DHT22;33046;52.270;6.832;2022-09-09T11:19:44;23.30;76.90
47310;DHT22;33046;52.270;6.832;2022-09-09T11:21:52;23.40;77.80
47310;DHT22;33046;52.270;6.832;2022-09-09T11:24:02;23.50;78.50
47310;DHT22;33046;52.270;6.832;2022-09-09T11:26:13;23.40;76.20
47310;DHT22;33046;52.270;6.832;2022-09-09T11:28:32;23.30;76.80
47310;DHT22;33046;52.270;6.832;2022-09-09T11:30:54;23.20;75.70
47310;DHT22;33046;52.270;6.832;2022-09-09T11:33:24;23.20;77.00
47310;DHT22;33046;52.270;6.832;2022-09-09T11:35:42;23.10;79.10
47310;DHT22;33046;52.270;6.832;2022-09-09T11:38:25;23.20;82.30
47310;DHT22;33046;52.270;6.832;2022-09-09T11:40:33;23.30;80.40
47310;DHT22;33046;52.270;6.832;2022-09-09T11:42:40;23.30;79.10
47310;DHT22;33046;52.270;6.832;2022-09-09T11:44:47;23.40;78.30
47310;DHT22;33046;52.270;6.832;2022-09-09T11:46:54;23.40;77.60
47310;DHT22;33046;52.270;6.832;2022-09-09T11:49:02;23.40;77.20
47310;DHT22;33046;52.270;6.832;2022-09-09T11:51:12;23.40;76.20
47310;DHT22;33046;52.270;6.832;2022-09-09T11:53:22;23.30;76.60
47310;DHT22;33046;52.270;6.832;2022-09-09T11:55:30;23.30;76.70
47310;DHT22;33046;52.270;6.832;2022-09-09T11:57:38;23.30;76.60
47310;DHT22;33046;52.270;6.832;2022-09-09T11:59:50;23.30;74.90
47310;DHT22;33046;52.270;6.832;2022-09-09T12:01:59;23.40;74.00
47310;DHT22;33046;52.270;6.832;2022-09-09T12:04:17;23.40;74.30
47310;DHT22;33046;52.270;6.832;2022-09-09T12:06:31;23.40;73.00
47310;DHT22;33046;52.270;6.832;2022-09-09T12:08:42;23.40;73.70
47310;DHT22;33046;52.270;6.832;2022-09-09T12:10:54;23.40;74.10
47310;DHT22;33046;52.270;6.832;2022-09-09T12:13:17;23.40;73.70
47310;DHT22;33046;52.270;6.832;2022-09-09T12:15:25;23.40;73.60
47310;DHT22;33046;52.270;6.832;2022-09-09T12:17:41;23.50;73.50
47310;DHT22;33046;52.270;6.832;2022-09-09T12:19:48;23.50;73.40
47310;DHT22;33046;52.270;6.832;2022-09-09T12:22:13;23.60;73.60
47310;DHT22;33046;52.270;6.832;2022-09-09T12:24:29;23.70;73.20
47310;DHT22;33046;52.270;6.832;2022-09-09T12:26:40;23.60;72.50
47310;DHT22;33046;52.270;6.832;2022-09-09T12:28:55;23.70;72.20
47310;DHT22;33046;52.270;6.832;2022-09-09T12:31:07;23.60;72.40
47310;DHT22;33046;52.270;6.832;2022-09-09T12:33:17;23.60;72.70
47310;DHT22;33046;52.270;6.832;2022-09-09T12:35:27;23.70;74.00
47310;DHT22;33046;52.270;6.832;2022-09-09T12:37:38;23.70;72.90
47310;DHT22;33046;52.270;6.832;2022-09-09T12:39:50;23.70;72.50
47310;DHT22;33046;52.270;6.832;2022-09-09T12:41:58;23.70;72.60
47310;DHT22;33046;52.270;6.832;2022-09-09T12:44:06;23.70;72.60
47310;DHT22;33046;52.270;6.832;2022-09-09T12:46:21;23.60;72.20
47310;DHT22;33046;52.270;6.832;2022-09-09T12:48:32;23.50;73.00
47310;DHT22;33046;52.270;6.832;2022-09-09T12:50:45;23.50;75.50
47310;DHT22;33046;52.270;6.832;2022-09-09T12:52:56;23.40;75.60
47310;DHT22;33046;52.270;6.832;2022-09-09T12:55:05;23.30;75.80
47310;DHT22;33046;52.270;6.832;2022-09-09T12:57:13;23.30;78.80
47310;DHT22;33046;52.270;6.832;2022-09-09T12:59:24;23.30;81.00
47310;DHT22;33046;52.270;6.832;2022-09-09T13:01:32;23.30;81.90
47310;DHT22;33046;52.270;6.832;2022-09-09T13:03:42;23.40;81.20
47310;DHT22;33046;52.270;6.832;2022-09-09T13:05:50;23.40;80.10
47310;DHT22;33046;52.270;6.832;2022-09-09T13:08:03;23.20;79.20
47310;DHT22;33046;52.270;6.832;2022-09-09T13:10:20;23.20;78.40
47310;DHT22;33046;52.270;6.832;2022-09-09T13:12:31;23.20;79.30
47310;DHT22;33046;52.270;6.832;2022-09-09T13:14:38;23.10;79.80
47310;DHT22;33046;52.270;6.832;2022-09-09T13:16:55;23.00;79.60
47310;DHT22;33046;52.270;6.832;2022-09-09T13:19:07;22.90;80.80
47310;DHT22;33046;52.270;6.832;2022-09-09T13:21:15;22.90;82.20
47310;DHT22;33046;52.270;6.832;2022-09-09T13:23:25;22.80;84.00
47310;DHT22;33046;52.270;6.832;2022-09-09T13:25:33;22.80;84.50
47310;DHT22;33046;52.270;6.832;2022-09-09T13:27:41;22.80;85.10
47310;DHT22;33046;52.270;6.832;2022-09-09T13:29:51;22.60;85.70
47310;DHT22;33046;52.270;6.832;2022-09-09T13:32:04;22.60;86.00
47310;DHT22;33046;52.270;6.832;2022-09-09T13:34:12;22.50;86.70
47310;DHT22;33046;52.270;6.832;2022-09-09T13:36:28;22.50;86.30
47310;DHT22;33046;52.270;6.832;2022-09-09T13:38:40;22.50;86.40
47310;DHT22;33046;52.270;6.832;2022-09-09T13:41:00;22.50;87.00
47310;DHT22;33046;52.270;6.832;2022-09-09T13:43:17;22.40;85.70
47310;DHT22;33046;52.270;6.832;2022-09-09T13:45:26;22.40;86.80
47310;DHT22;33046;52.270;6.832;2022-09-09T13:47:36;22.50;87.20
47310;DHT22;33046;52.270;6.832;2022-09-09T13:49:42;22.60;87.30
47310;DHT22;33046;52.270;6.832;2022-09-09T13:51:50;22.60;87.00
47310;DHT22;33046;52.270;6.832;2022-09-09T13:53:59;22.70;85.30
47310;DHT22;33046;52.270;6.832;2022-09-09T13:56:05;22.70;84.60